createdAt,value
2018-05-12T00:00:13.595Z,13.20
2018-05-12T00:02:14.546Z,14.10
2018-05-12T00:04:15.509Z,14.30
2018-05-12T00:06:16.503Z,15.30
2018-05-12T00:08:18.234Z,14.30
2018-05-12T00:10:19.203Z,13.93
2018-05-12T00:12:20.899Z,15.13
2018-05-12T00:14:21.835Z,15.57
2018-05-12T00:16:22.793Z,15.03
2018-05-12T00:18:23.749Z,15.60
2018-05-12T00:20:25.475Z,15.40
2018-05-12T00:22:26.429Z,14.10
2018-05-12T00:24:27.375Z,14.77
2018-05-12T00:26:28.337Z,13.73
2018-05-12T00:28:29.303Z,13.97
2018-05-12T00:30:30.274Z,13.30
2018-05-12T00:32:31.366Z,13.20
2018-05-12T00:34:32.320Z,13.70
2018-05-12T00:36:33.267Z,12.03
2018-05-12T00:38:34.247Z,13.00
2018-05-12T00:40:35.232Z,14.30
2018-05-12T00:42:36.930Z,14.73
2018-05-12T00:44:37.881Z,12.90
2018-05-12T00:46:38.849Z,15.60
2018-05-12T00:48:39.777Z,13.97
2018-05-12T00:50:40.733Z,14.60
2018-05-12T00:52:41.723Z,13.63
2018-05-12T00:54:43.409Z,14.87
2018-05-12T00:56:44.465Z,15.03
2018-05-12T00:58:45.419Z,13.93
2018-05-12T01:00:46.447Z,14.50
2018-05-12T01:02:47.415Z,16.00
2018-05-12T01:04:48.378Z,15.87
2018-05-12T01:06:49.330Z,14.90
2018-05-12T01:08:50.280Z,14.50
2018-05-12T01:10:51.215Z,14.23
2018-05-12T01:12:52.153Z,13.90
2018-05-12T01:14:53.126Z,14.37
2018-05-12T01:16:54.083Z,15.77
2018-05-12T01:18:55.063Z,16.07
2018-05-12T01:20:56.039Z,16.70
2018-05-12T01:22:57.013Z,15.73
2018-05-12T01:24:57.962Z,15.60
2018-05-12T01:26:58.906Z,15.63
2018-05-12T01:28:59.840Z,16.47
2018-05-12T01:31:00.823Z,16.43
2018-05-12T01:33:02.527Z,15.70
2018-05-12T01:35:03.466Z,16.20
2018-05-12T01:37:04.455Z,15.60
2018-05-12T01:39:05.390Z,15.00
2018-05-12T01:41:06.341Z,15.90
2018-05-12T01:43:07.308Z,17.30
2018-05-12T01:45:09.035Z,17.57
2018-05-12T01:47:09.993Z,17.07
2018-05-12T01:49:10.959Z,17.67
2018-05-12T01:51:12.680Z,18.20
2018-05-12T01:53:13.642Z,17.77
2018-05-12T01:55:14.645Z,16.23
2018-05-12T01:57:15.674Z,17.77
2018-05-12T01:59:16.585Z,17.07
2018-05-12T02:01:17.541Z,17.30
2018-05-12T02:03:18.487Z,16.07
2018-05-12T02:05:19.439Z,17.27
2018-05-12T02:07:20.372Z,16.20
2018-05-12T02:09:21.359Z,16.50
2018-05-12T02:11:22.326Z,18.73
2018-05-12T02:13:23.269Z,16.30
2018-05-12T02:15:24.216Z,16.70
2018-05-12T02:17:25.189Z,17.20
2018-05-12T02:19:26.156Z,15.80
2018-05-12T02:21:27.102Z,15.93
2018-05-12T02:23:28.038Z,15.43
2018-05-12T02:25:28.991Z,16.40
2018-05-12T02:27:29.954Z,14.60
2018-05-12T02:29:31.661Z,16.00
2018-05-12T02:31:32.598Z,16.97
2018-05-12T02:33:33.555Z,15.43
2018-05-12T02:35:34.551Z,14.43
2018-05-12T02:37:36.239Z,15.30
2018-05-12T02:39:37.229Z,16.70
2018-05-12T02:41:38.145Z,15.37
2018-05-12T02:43:39.106Z,15.33
2018-05-12T02:45:40.067Z,16.10
2018-05-12T02:47:41.027Z,17.77
2018-05-12T02:49:41.958Z,17.40
2018-05-12T02:51:42.908Z,17.27
2018-05-12T02:53:43.867Z,17.77
2018-05-12T02:55:44.839Z,16.60
2018-05-12T02:57:45.782Z,19.03
2018-05-12T02:59:46.751Z,17.90
2018-05-12T03:01:47.699Z,19.50
2018-05-12T03:03:48.634Z,17.33
2018-05-12T03:05:49.582Z,18.87
2018-05-12T03:07:50.548Z,18.10
2018-05-12T03:09:51.501Z,17.67
2018-05-12T03:11:52.475Z,17.90
2018-05-12T03:13:53.418Z,18.07
2018-05-12T03:15:54.362Z,18.30
2018-05-12T03:17:55.319Z,18.70
2018-05-12T03:19:57.026Z,19.43
2018-05-12T03:21:57.962Z,21.23
2018-05-12T03:23:58.910Z,19.83
2018-05-12T03:25:59.899Z,19.93
2018-05-12T03:28:00.832Z,20.53
2018-05-12T03:30:01.792Z,19.37
2018-05-12T03:32:02.753Z,21.60
2018-05-12T03:34:03.712Z,20.47
2018-05-12T03:36:05.424Z,19.57
2018-05-12T03:38:06.371Z,20.97
2018-05-12T03:40:07.306Z,20.98
2018-05-12T03:42:08.699Z,22.07
2018-05-12T03:44:09.647Z,20.97
2018-05-12T03:46:10.626Z,20.67
2018-05-12T03:48:12.331Z,21.07
2018-05-12T03:50:13.285Z,21.13
2018-05-12T03:52:14.253Z,22.10
2018-05-12T03:54:15.198Z,20.87
2018-05-12T03:56:17.118Z,20.40
2018-05-12T03:58:18.037Z,20.93
2018-05-12T04:00:19.707Z,19.97
2018-05-12T04:02:20.693Z,20.70
2018-05-12T04:04:34.064Z,18.13
2018-05-12T04:06:47.433Z,20.57
2018-05-12T04:09:00.786Z,19.63
2018-05-12T04:11:14.134Z,21.07
2018-05-12T04:13:15.080Z,19.33
2018-05-12T04:15:16.026Z,18.73
2018-05-12T04:17:16.967Z,19.33
2018-05-12T04:19:17.894Z,19.57
2018-05-12T04:21:18.820Z,19.20
2018-05-12T04:23:20.487Z,20.60
2018-05-12T04:25:22.183Z,20.40
2018-05-12T04:27:23.118Z,19.77
2018-05-12T04:29:24.054Z,19.57
2018-05-12T04:31:25.748Z,19.87
2018-05-12T04:33:26.682Z,19.17
2018-05-12T04:35:27.619Z,20.53
2018-05-12T04:37:28.575Z,18.60
2018-05-12T04:39:29.515Z,19.20
2018-05-12T04:41:30.462Z,19.63
2018-05-12T04:43:31.398Z,19.20
2018-05-12T04:45:32.348Z,19.83
2018-05-12T04:47:33.289Z,19.43
2018-05-12T04:49:34.242Z,19.37
2018-05-12T04:51:35.187Z,19.03
2018-05-12T04:53:36.874Z,19.73
2018-05-12T04:55:37.833Z,20.30
2018-05-12T04:57:38.782Z,20.07
2018-05-12T04:59:39.731Z,20.13
2018-05-12T05:01:40.678Z,21.03
2018-05-12T05:03:41.618Z,20.40
2018-05-12T05:05:42.533Z,19.80
2018-05-12T05:07:43.483Z,21.00
2018-05-12T05:09:44.417Z,20.33
2018-05-12T05:11:45.356Z,20.23
2018-05-12T05:13:46.292Z,22.77
2018-05-12T05:15:47.236Z,21.83
2018-05-12T05:17:48.182Z,21.43
2018-05-12T05:19:49.146Z,22.00
2018-05-12T05:21:50.086Z,20.47
2018-05-12T05:23:51.038Z,21.43
2018-05-12T05:25:52.001Z,21.10
2018-05-12T05:27:52.938Z,20.23
2018-05-12T05:29:53.890Z,21.57
2018-05-12T05:31:54.827Z,19.63
2018-05-12T05:33:55.748Z,20.80
2018-05-12T05:35:56.678Z,20.97
2018-05-12T05:37:58.355Z,20.70
2018-05-12T05:39:59.299Z,21.27
2018-05-12T05:42:00.278Z,22.00
2018-05-12T05:44:01.217Z,20.20
2018-05-12T05:46:02.160Z,21.83
2018-05-12T05:48:03.130Z,21.33
2018-05-12T05:50:04.064Z,22.87
2018-05-12T05:52:04.985Z,22.90
2018-05-12T05:54:05.921Z,24.47
2018-05-12T05:56:06.869Z,21.60
2018-05-12T05:58:07.810Z,20.70
2018-05-12T06:00:08.759Z,20.17
2018-05-12T06:02:09.691Z,21.37
2018-05-12T06:04:10.647Z,21.85
2018-05-12T06:06:11.567Z,21.47
2018-05-12T06:08:13.266Z,20.60
2018-05-12T06:10:14.216Z,21.13
2018-05-12T06:12:15.141Z,21.43
2018-05-12T06:14:16.079Z,20.97
2018-05-12T06:16:17.746Z,21.00
2018-05-12T06:18:18.681Z,21.57
2018-05-12T06:20:20.357Z,20.73
2018-05-12T06:22:21.302Z,21.53
2018-05-12T06:24:22.253Z,19.80
2018-05-12T06:26:23.203Z,22.53
2018-05-12T06:28:24.137Z,20.53
2018-05-12T06:30:25.074Z,20.93
2018-05-12T06:32:26.762Z,21.83
2018-05-12T06:34:27.705Z,21.27
2018-05-12T06:36:28.644Z,20.77
2018-05-12T06:38:29.566Z,22.43
2018-05-12T06:40:30.634Z,21.70
2018-05-12T06:42:31.606Z,21.20
2018-05-12T06:44:32.671Z,21.13
2018-05-12T06:46:33.602Z,22.63
2018-05-12T06:48:34.543Z,23.77
2018-05-12T06:50:35.457Z,21.93
2018-05-12T06:52:37.151Z,20.90
2018-05-12T06:54:38.089Z,22.03
2018-05-12T06:56:39.027Z,21.03
2018-05-12T06:58:39.962Z,22.90
2018-05-12T07:00:40.889Z,22.23
2018-05-12T07:02:42.577Z,21.90
2018-05-12T07:04:43.537Z,23.30
2018-05-12T07:06:44.476Z,21.57
2018-05-12T07:08:45.437Z,21.67
2018-05-12T07:10:47.315Z,21.40
2018-05-12T07:12:48.257Z,22.03
2018-05-12T07:14:49.175Z,22.07
2018-05-12T07:16:50.103Z,19.70
2018-05-12T07:18:51.775Z,19.63
2018-05-12T07:20:52.750Z,20.13
2018-05-12T07:22:53.693Z,20.80
2018-05-12T07:24:54.629Z,20.63
2018-05-12T07:26:56.302Z,20.07
2018-05-12T07:28:57.263Z,21.60
2018-05-12T07:30:58.201Z,19.53
2018-05-12T07:32:59.199Z,19.73
2018-05-12T07:35:00.155Z,20.20
2018-05-12T07:37:01.086Z,17.87
2018-05-12T07:39:02.806Z,18.63
2018-05-12T07:41:03.754Z,20.27
2018-05-12T07:43:04.705Z,17.00
2018-05-12T07:45:05.660Z,19.47
2018-05-12T07:47:06.609Z,18.00
2018-05-12T07:49:07.554Z,20.47
2018-05-12T07:51:08.542Z,19.83
2018-05-12T07:53:09.491Z,18.80
2018-05-12T07:55:10.498Z,21.13
2018-05-12T07:57:11.429Z,20.87
2018-05-12T07:59:12.390Z,19.27
2018-05-12T08:01:13.339Z,18.60
2018-05-12T08:03:15.034Z,17.40
2018-05-12T08:05:15.994Z,18.13
2018-05-12T08:07:16.978Z,16.77
2018-05-12T08:09:17.917Z,24.27
2018-05-12T08:11:18.884Z,15.00
2018-05-12T08:13:20.574Z,12.93
2018-05-12T08:15:21.522Z,15.40
2018-05-12T08:17:22.469Z,14.20
2018-05-12T08:19:23.402Z,14.37
2018-05-12T08:21:25.098Z,13.90
2018-05-12T08:23:26.062Z,13.80
2018-05-12T08:25:27.097Z,13.33
2018-05-12T08:27:28.048Z,13.10
2018-05-12T08:29:29.034Z,13.80
2018-05-12T08:31:30.069Z,12.77
2018-05-12T08:33:31.662Z,11.70
2018-05-12T08:35:33.321Z,12.23
2018-05-12T08:37:35.020Z,12.10
2018-05-12T08:39:35.960Z,10.83
2018-05-12T08:41:36.889Z,12.57
2018-05-12T08:43:37.840Z,11.97
2018-05-12T08:45:38.886Z,12.20
2018-05-12T08:47:39.826Z,12.07
2018-05-12T08:49:40.807Z,13.60
2018-05-12T08:51:41.769Z,11.50
2018-05-12T08:53:42.749Z,11.27
2018-05-12T08:55:44.434Z,11.57
2018-05-12T08:57:45.369Z,12.53
2018-05-12T08:59:46.329Z,12.80
2018-05-12T09:01:47.331Z,12.37
2018-05-12T09:03:48.277Z,11.93
2018-05-12T09:05:49.253Z,11.70
2018-05-12T09:07:50.226Z,11.93
2018-05-12T09:09:51.146Z,13.27
2018-05-12T09:11:52.097Z,13.40
2018-05-12T09:13:53.046Z,13.30
2018-05-12T09:15:53.998Z,14.00
2018-05-12T09:17:54.954Z,14.23
2018-05-12T09:19:55.951Z,14.13
2018-05-12T09:21:56.972Z,13.77
2018-05-12T09:23:58.586Z,13.03
2018-05-12T09:25:59.547Z,13.40
2018-05-12T09:28:00.550Z,14.13
2018-05-12T09:30:01.527Z,13.90
2018-05-12T09:32:02.475Z,13.87
2018-05-12T09:34:03.457Z,11.97
2018-05-12T09:36:04.402Z,11.80
2018-05-12T09:38:05.346Z,12.33
2018-05-12T09:40:06.298Z,12.47
2018-05-12T09:42:07.267Z,12.20
2018-05-12T09:44:08.199Z,12.33
2018-05-12T09:46:09.122Z,12.90
2018-05-12T09:48:10.045Z,12.00
2018-05-12T09:50:11.013Z,10.47
2018-05-12T09:52:11.983Z,10.33
2018-05-12T09:54:12.938Z,10.33
2018-05-12T09:56:13.921Z,8.97
2018-05-12T09:58:14.953Z,10.50
2018-05-12T10:00:15.907Z,11.00
2018-05-12T10:02:17.608Z,10.57
2018-05-12T10:04:18.583Z,11.30
2018-05-12T10:06:19.538Z,10.67
2018-05-12T10:08:20.543Z,11.30
2018-05-12T10:10:21.506Z,12.50
2018-05-12T10:12:22.508Z,12.60
2018-05-12T10:14:23.467Z,13.60
2018-05-12T10:16:24.414Z,11.90
2018-05-12T10:18:25.353Z,10.90
2018-05-12T10:20:26.317Z,11.10
2018-05-12T10:22:27.378Z,9.87
2018-05-12T10:24:28.345Z,12.03
2018-05-12T10:26:29.366Z,11.37
2018-05-12T10:28:30.318Z,13.10
2018-05-12T10:30:31.265Z,12.77
2018-05-12T10:32:32.226Z,12.13
2018-05-12T10:34:33.211Z,11.20
2018-05-12T10:36:34.159Z,11.67
2018-05-12T10:38:35.085Z,11.00
2018-05-12T10:40:36.790Z,10.40
2018-05-12T10:42:37.739Z,7.50
2018-05-12T10:44:38.679Z,7.77
2018-05-12T10:46:39.621Z,12.00
2018-05-12T10:48:41.324Z,10.23
2018-05-12T10:50:42.262Z,8.93
2018-05-12T10:52:43.239Z,8.00
2018-05-12T10:54:45.086Z,6.53
2018-05-12T10:56:46.681Z,6.97
2018-05-12T10:58:47.627Z,7.60
2018-05-12T11:00:49.313Z,6.03
2018-05-12T11:02:50.274Z,8.27
2018-05-12T11:04:51.225Z,7.93
2018-05-12T11:06:52.159Z,9.27
2018-05-12T11:08:53.095Z,7.83
2018-05-12T11:10:54.034Z,8.80
2018-05-12T11:12:54.984Z,9.83
2018-05-12T11:14:55.930Z,8.77
2018-05-12T11:16:56.883Z,7.03
2018-05-12T11:18:57.849Z,7.40
2018-05-12T11:20:58.798Z,7.67
2018-05-12T11:22:59.729Z,7.27
2018-05-12T11:25:00.714Z,7.00
2018-05-12T11:27:01.646Z,7.20
2018-05-12T11:29:02.654Z,8.60
2018-05-12T11:31:03.589Z,8.37
2018-05-12T11:33:04.554Z,8.07
2018-05-12T11:35:05.500Z,7.77
2018-05-12T11:37:06.455Z,10.97
2018-05-12T11:39:07.402Z,9.93
2018-05-12T11:41:08.350Z,11.03
2018-05-12T11:43:09.290Z,10.73
2018-05-12T11:45:10.239Z,11.10
2018-05-12T11:47:11.188Z,9.90
2018-05-12T11:49:12.145Z,12.87
2018-05-12T11:51:13.102Z,13.93
2018-05-12T11:53:14.050Z,13.73
2018-05-12T11:55:15.011Z,12.37
2018-05-12T11:57:16.694Z,12.77
2018-05-12T11:59:17.657Z,13.53
2018-05-12T12:01:18.605Z,13.73
2018-05-12T12:03:19.563Z,13.30
2018-05-12T12:05:20.567Z,15.53
2018-05-12T12:07:22.348Z,14.10
2018-05-12T12:09:23.315Z,15.10
2018-05-12T12:11:24.986Z,13.50
2018-05-12T12:13:25.927Z,15.00
2018-05-12T12:15:26.869Z,14.70
2018-05-12T12:17:28.557Z,14.80
2018-05-12T12:19:29.511Z,13.53
2018-05-12T12:21:30.439Z,14.20
2018-05-12T12:23:31.383Z,12.77
2018-05-12T12:25:32.341Z,12.60
2018-05-12T12:27:33.291Z,12.63
2018-05-12T12:29:34.273Z,11.40
2018-05-12T12:31:35.954Z,11.80
2018-05-12T12:33:36.899Z,12.07
2018-05-12T12:35:38.623Z,11.40
2018-05-12T12:37:40.305Z,12.30
2018-05-12T12:39:41.984Z,11.40
2018-05-12T12:41:42.959Z,12.10
2018-05-12T12:43:43.919Z,10.63
2018-05-12T12:45:44.863Z,12.97
2018-05-12T12:47:45.832Z,12.97
2018-05-12T12:49:46.770Z,11.70
2018-05-12T12:51:47.777Z,12.43
2018-05-12T12:53:48.682Z,11.80
2018-05-12T12:55:50.371Z,11.37
2018-05-12T12:57:51.298Z,12.47
2018-05-12T12:59:52.987Z,10.80
2018-05-12T13:01:53.940Z,11.37
2018-05-12T13:03:54.910Z,11.40
2018-05-12T13:05:55.846Z,12.40
2018-05-12T13:07:56.785Z,10.33
2018-05-12T13:09:57.730Z,12.57
2018-05-12T13:11:58.696Z,12.17
2018-05-12T13:13:59.640Z,13.37
2018-05-12T13:16:00.606Z,14.37
2018-05-12T13:18:01.525Z,14.37
2018-05-12T13:20:02.505Z,14.23
2018-05-12T13:22:04.199Z,14.50
2018-05-12T13:24:05.147Z,14.47
2018-05-12T13:26:06.089Z,12.23
2018-05-12T13:28:07.024Z,13.00
2018-05-12T13:30:07.967Z,13.50
2018-05-12T13:32:08.926Z,14.30
2018-05-12T13:34:09.874Z,13.73
2018-05-12T13:36:10.811Z,14.40
2018-05-12T13:38:11.736Z,12.93
2018-05-12T13:40:12.690Z,12.40
2018-05-12T13:42:14.376Z,13.87
2018-05-12T13:44:15.313Z,11.27
2018-05-12T13:46:16.250Z,12.30
2018-05-12T13:48:17.173Z,13.60
2018-05-12T13:50:18.851Z,13.43
2018-05-12T13:52:20.538Z,14.50
2018-05-12T13:54:21.483Z,13.53
2018-05-12T13:56:22.431Z,14.37
2018-05-12T13:58:23.397Z,14.17
2018-05-12T14:00:24.349Z,13.10
2018-05-12T14:02:25.328Z,15.90
2018-05-12T14:04:26.270Z,16.10
2018-05-12T14:06:27.223Z,15.53
2018-05-12T14:08:28.903Z,14.77
2018-05-12T14:10:29.854Z,17.43
2018-05-12T14:12:30.793Z,18.37
2018-05-12T14:14:32.469Z,18.03
2018-05-12T14:16:33.429Z,17.43
2018-05-12T14:18:34.389Z,19.27
2018-05-12T14:20:35.366Z,18.17
2018-05-12T14:22:36.316Z,18.40
2018-05-12T14:24:37.245Z,18.33
2018-05-12T14:26:38.188Z,19.07
2018-05-12T14:28:39.115Z,19.60
2018-05-12T14:30:40.079Z,19.27
2018-05-12T14:32:41.022Z,19.60
2018-05-12T14:34:41.991Z,19.63
2018-05-12T14:36:42.941Z,20.90
2018-05-12T14:38:44.642Z,19.17
2018-05-12T14:40:45.622Z,21.05
2018-05-12T14:42:46.763Z,21.33
2018-05-12T14:44:47.653Z,22.90
2018-05-12T14:46:49.342Z,23.90
2018-05-12T14:48:50.286Z,22.77
2018-05-12T14:50:51.962Z,21.80
2018-05-12T14:52:52.901Z,25.90
2018-05-12T14:54:53.854Z,23.53
2018-05-12T14:56:54.814Z,22.50
2018-05-12T14:58:55.762Z,23.77
2018-05-12T15:00:56.689Z,23.07
2018-05-12T15:02:57.634Z,25.77
2018-05-12T15:04:58.613Z,23.60
2018-05-12T15:06:59.557Z,25.13
2018-05-12T15:09:00.541Z,22.37
2018-05-12T15:11:02.232Z,24.43
2018-05-12T15:13:03.200Z,23.37
2018-05-12T15:15:04.148Z,23.73
2018-05-12T15:17:05.099Z,24.43
2018-05-12T15:19:06.046Z,25.93
2018-05-12T15:21:06.999Z,25.70
2018-05-12T15:23:07.938Z,24.43
2018-05-12T15:25:08.887Z,26.60
2018-05-12T15:27:09.847Z,25.60
2018-05-12T15:29:10.787Z,25.63
2018-05-12T15:31:11.787Z,24.13
2018-05-12T15:33:12.733Z,22.20
2018-05-12T15:35:13.687Z,27.13
2018-05-12T15:37:14.639Z,26.43
2018-05-12T15:39:15.582Z,24.40
2018-05-12T15:41:16.522Z,26.13
2018-05-12T15:43:17.476Z,26.40
2018-05-12T15:45:18.471Z,23.23
2018-05-12T15:47:20.203Z,24.50
2018-05-12T15:49:21.138Z,23.70
2018-05-12T15:51:22.099Z,24.87
2018-05-12T15:53:23.041Z,25.70
2018-05-12T15:55:24.108Z,23.13
2018-05-12T15:57:25.084Z,23.83
2018-05-12T15:59:25.988Z,24.00
2018-05-12T16:01:26.963Z,22.43
2018-05-12T16:03:28.679Z,21.47
2018-05-12T16:05:29.631Z,21.70
2018-05-12T16:07:30.624Z,22.20
2018-05-12T16:09:32.323Z,24.90
2018-05-12T16:11:33.260Z,22.80
2018-05-12T16:13:34.236Z,22.10
2018-05-12T16:15:35.212Z,22.27
2018-05-12T16:17:36.166Z,21.83
2018-05-12T16:19:37.163Z,22.90
2018-05-12T16:21:38.171Z,22.23
2018-05-12T16:23:39.140Z,23.17
2018-05-12T16:25:40.116Z,21.63
2018-05-12T16:27:41.058Z,22.47
2018-05-12T16:29:42.059Z,21.13
2018-05-12T16:31:43.021Z,21.93
2018-05-12T16:33:43.962Z,22.10
2018-05-12T16:35:44.933Z,22.00
2018-05-12T16:37:45.925Z,22.93
2018-05-12T16:39:47.619Z,24.53
2018-05-12T16:41:48.582Z,23.43
2018-05-12T16:43:49.551Z,23.07
2018-05-12T16:45:50.512Z,24.80
2018-05-12T16:47:51.495Z,23.03
2018-05-12T16:49:52.456Z,25.10
2018-05-12T16:51:53.443Z,25.60
2018-05-12T16:53:54.425Z,25.67
2018-05-12T16:55:55.421Z,25.90
2018-05-12T16:57:56.444Z,23.00
2018-05-12T16:59:57.402Z,26.70
2018-05-12T17:01:58.434Z,24.93
2018-05-12T17:03:59.365Z,26.53
2018-05-12T17:06:00.359Z,24.47
2018-05-12T17:08:01.330Z,25.70
2018-05-12T17:10:02.306Z,25.60
2018-05-12T17:12:03.270Z,26.37
2018-05-12T17:14:04.221Z,27.03
2018-05-12T17:16:05.300Z,26.40
2018-05-12T17:18:06.246Z,25.17
2018-05-12T17:20:07.200Z,25.97
2018-05-12T17:22:08.142Z,26.27
2018-05-12T17:24:09.121Z,29.30
2018-05-12T17:26:10.889Z,27.70
2018-05-12T17:28:11.902Z,26.07
2018-05-12T17:30:12.858Z,26.97
2018-05-12T17:32:13.835Z,26.50
2018-05-12T17:34:14.772Z,25.60
2018-05-12T17:36:15.780Z,26.70
2018-05-12T17:38:17.491Z,26.37
2018-05-12T17:40:18.454Z,26.83
2018-05-12T17:42:19.412Z,27.02
2018-05-12T17:44:20.441Z,27.47
2018-05-12T17:46:21.334Z,28.27
2018-05-12T17:48:22.280Z,28.10
2018-05-12T17:50:23.268Z,27.20
2018-05-12T17:52:24.207Z,28.10
2018-05-12T17:54:25.177Z,27.63
2018-05-12T17:56:26.170Z,25.37
2018-05-12T17:58:27.160Z,27.27
2018-05-12T18:00:28.202Z,27.80
2018-05-12T18:02:29.186Z,26.23
2018-05-12T18:04:30.131Z,27.00
2018-05-12T18:06:31.128Z,27.27
2018-05-12T18:08:32.119Z,26.63
2018-05-12T18:10:33.106Z,25.10
2018-05-12T18:12:34.074Z,25.87
2018-05-12T18:14:35.018Z,27.57
2018-05-12T18:16:35.978Z,25.77
2018-05-12T18:18:36.941Z,27.17
2018-05-12T18:20:37.975Z,27.37
2018-05-12T18:22:38.957Z,26.97
2018-05-12T18:24:39.926Z,26.07
2018-05-12T18:26:40.885Z,26.03
2018-05-12T18:28:42.615Z,27.50
2018-05-12T18:30:43.614Z,26.60
2018-05-12T18:32:44.568Z,26.43
2018-05-12T18:34:45.573Z,26.90
2018-05-12T18:36:46.514Z,26.97
2018-05-12T18:38:47.499Z,26.70
2018-05-12T18:40:48.456Z,27.90
2018-05-12T18:42:49.410Z,26.60
2018-05-12T18:44:50.370Z,26.57
2018-05-12T18:46:51.360Z,27.50
2018-05-12T18:48:53.059Z,27.77
2018-05-12T18:50:54.151Z,28.37
2018-05-12T18:52:55.101Z,29.03
2018-05-12T18:54:56.084Z,29.00
2018-05-12T18:56:57.074Z,28.90
2018-05-12T18:58:58.039Z,29.67
2018-05-12T19:00:59.010Z,30.63
2018-05-12T19:02:59.972Z,30.17
2018-05-12T19:05:00.951Z,29.60
2018-05-12T19:07:01.907Z,30.47
2018-05-12T19:09:02.878Z,29.77
2018-05-12T19:11:03.834Z,30.30
2018-05-12T19:13:05.539Z,30.97
2018-05-12T19:15:06.493Z,30.17
2018-05-12T19:17:07.493Z,30.80
2018-05-12T19:19:08.462Z,29.47
2018-05-12T19:21:09.413Z,27.47
2018-05-12T19:23:11.113Z,29.80
2018-05-12T19:25:12.048Z,28.70
2018-05-12T19:27:13.054Z,27.57
2018-05-12T19:29:14.013Z,26.77
2018-05-12T19:31:14.991Z,26.27
2018-05-12T19:33:15.949Z,26.80
2018-05-12T19:35:16.893Z,28.87
2018-05-12T19:37:17.896Z,26.97
2018-05-12T19:39:18.936Z,26.43
2018-05-12T19:41:19.810Z,26.23
2018-05-12T19:43:20.799Z,26.30
2018-05-12T19:45:21.757Z,26.53
2018-05-12T19:47:22.726Z,26.27
2018-05-12T19:49:23.662Z,26.70
2018-05-12T19:51:24.602Z,23.80
2018-05-12T19:53:25.587Z,26.30
2018-05-12T19:55:26.563Z,25.43
2018-05-12T19:57:27.530Z,26.90
2018-05-12T19:59:29.210Z,27.00
2018-05-12T20:01:30.162Z,25.13
2018-05-12T20:03:31.105Z,27.13
2018-05-12T20:05:32.033Z,27.57
2018-05-12T20:07:32.977Z,24.67
2018-05-12T20:09:33.922Z,24.50
2018-05-12T20:11:35.655Z,25.00
2018-05-12T20:13:36.615Z,24.30
2018-05-12T20:15:37.549Z,26.30
2018-05-12T20:17:38.486Z,24.13
2018-05-12T20:19:39.438Z,26.43
2018-05-12T20:21:40.390Z,24.67
2018-05-12T20:23:41.327Z,24.07
2018-05-12T20:25:42.346Z,24.57
2018-05-12T20:27:43.214Z,23.17
2018-05-12T20:29:44.166Z,24.40
2018-05-12T20:31:45.133Z,22.93
2018-05-12T20:33:46.834Z,25.37
2018-05-12T20:35:47.803Z,25.10
2018-05-12T20:37:48.771Z,24.23
2018-05-12T20:39:49.733Z,23.23
2018-05-12T20:41:51.456Z,25.13
2018-05-12T20:43:52.417Z,24.77
2018-05-12T20:45:53.389Z,24.30
2018-05-12T20:47:55.077Z,24.80
2018-05-12T20:49:56.014Z,24.50
2018-05-12T20:51:57.709Z,24.83
2018-05-12T20:53:58.679Z,25.27
2018-05-12T20:55:59.634Z,24.00
2018-05-12T20:58:00.619Z,24.20
2018-05-12T21:00:02.315Z,24.53
2018-05-12T21:02:03.336Z,24.67
2018-05-12T21:04:04.308Z,25.10
2018-05-12T21:06:05.230Z,24.77
2018-05-12T21:08:06.193Z,24.33
2018-05-12T21:10:07.187Z,25.40
2018-05-12T21:12:08.903Z,26.43
2018-05-12T21:14:09.964Z,24.33
2018-05-12T21:16:10.880Z,25.83
2018-05-12T21:18:11.842Z,27.57
2018-05-12T21:20:12.816Z,28.67
2018-05-12T21:22:13.762Z,28.40
2018-05-12T21:24:14.743Z,29.07
2018-05-12T21:26:15.710Z,26.53
2018-05-12T21:28:16.715Z,29.60
2018-05-12T21:30:17.646Z,28.43
2018-05-12T21:32:18.610Z,27.30
2018-05-12T21:34:19.557Z,27.63
2018-05-12T21:36:20.550Z,27.97
2018-05-12T21:38:21.514Z,28.40
2018-05-12T21:40:22.458Z,28.80
2018-05-12T21:42:23.432Z,26.00
2018-05-12T21:44:24.379Z,28.83
2018-05-12T21:46:25.313Z,26.57
2018-05-12T21:48:26.281Z,26.17
2018-05-12T21:50:27.216Z,27.60
2018-05-12T21:52:28.184Z,28.13
2018-05-12T21:54:29.157Z,24.83
2018-05-12T21:56:30.121Z,26.70
2018-05-12T21:58:31.099Z,26.20
2018-05-12T22:00:32.056Z,25.63
2018-05-12T22:02:33.031Z,26.90
2018-05-12T22:04:33.982Z,26.60
2018-05-12T22:06:34.923Z,25.80
2018-05-12T22:08:35.881Z,29.30
2018-05-12T22:10:36.853Z,30.90
2018-05-12T22:12:37.840Z,31.30
2018-05-12T22:14:38.790Z,33.00
2018-05-12T22:16:39.727Z,31.30
2018-05-12T22:18:41.475Z,31.23
2018-05-12T22:20:42.364Z,31.43
2018-05-12T22:22:43.336Z,26.57
2018-05-12T22:24:44.286Z,31.07
2018-05-12T22:26:45.267Z,30.07
2018-05-12T22:28:46.221Z,29.67
2018-05-12T22:30:47.950Z,28.00
2018-05-12T22:32:48.920Z,26.30
2018-05-12T22:34:49.855Z,26.60
2018-05-12T22:36:50.801Z,25.97
2018-05-12T22:38:51.778Z,27.67
2018-05-12T22:40:53.474Z,26.90
2018-05-12T22:42:54.456Z,27.07
2018-05-12T22:44:55.395Z,26.53
2018-05-12T22:46:56.362Z,26.63
2018-05-12T22:48:57.312Z,26.43
2018-05-12T22:50:58.978Z,27.40
2018-05-12T22:53:00.695Z,25.17
2018-05-12T22:55:01.680Z,27.67
2018-05-12T22:57:02.643Z,27.57
2018-05-12T22:59:04.363Z,26.43
2018-05-12T23:01:05.333Z,26.77
2018-05-12T23:03:06.331Z,27.83
2018-05-12T23:05:07.308Z,25.90
2018-05-12T23:07:08.257Z,26.53
2018-05-12T23:09:09.231Z,24.67
2018-05-12T23:11:10.938Z,24.73
2018-05-12T23:13:12.654Z,23.70
2018-05-12T23:15:14.324Z,25.43
2018-05-12T23:17:16.014Z,25.20
2018-05-12T23:19:16.994Z,25.20
2018-05-12T23:21:17.929Z,25.97
2018-05-12T23:23:18.885Z,25.80
2018-05-12T23:25:19.832Z,26.17
2018-05-12T23:27:20.792Z,26.00
2018-05-12T23:29:21.738Z,25.70
2018-05-12T23:31:22.717Z,25.87
2018-05-12T23:33:23.678Z,25.70
2018-05-12T23:35:24.622Z,25.07
2018-05-12T23:37:25.577Z,25.97
2018-05-12T23:39:26.534Z,26.00
2018-05-12T23:41:27.480Z,26.93
2018-05-12T23:43:28.503Z,24.73
2018-05-12T23:45:29.446Z,26.37
2018-05-12T23:47:30.382Z,27.23
2018-05-12T23:49:32.118Z,27.50
2018-05-12T23:51:33.124Z,25.47
2018-05-12T23:53:34.800Z,24.83
2018-05-12T23:55:35.752Z,27.10
2018-05-12T23:57:36.918Z,26.00
2018-05-12T23:59:37.867Z,25.50
